Time;durP1;ratioP1;P1;durP2;ratioP2;P2;SDS_P1;SDS_P2;PMS_P1;PMS_P2;Temp;Humidity;BMP_temperature;BMP_pressure;BME280_temperature;BME280_humidity;BME280_pressure;Samples;Min_cycle;Max_cycle;Signal;HPM_P1;HPM_P2
2023/07/22 00:00:59;;;;;;;56.70;53.33;;;;;;;25.02;63.04;97014.88;5090735;28;20210;-73
2023/07/22 00:03:26;;;;;;;26.33;13.30;;;;;;;25.00;62.98;97008.91;5088719;28;20202;-75
2023/07/22 00:06:05;;;;;;;33.47;19.53;;;;;;;25.02;62.79;96989.22;5108450;28;20206;-72
2023/07/22 00:08:36;;;;;;;31.80;28.90;;;;;;;25.35;61.62;96998.09;5106615;28;20298;-73
2023/07/22 00:11:05;;;;;;;48.17;44.57;;;;;;;25.19;62.60;96998.06;5108495;28;20196;-73
2023/07/22 00:13:33;;;;;;;17.83;16.13;;;;;;;25.27;62.05;96998.06;5089081;28;20266;-74
2023/07/22 00:16:04;;;;;;;31.00;17.93;;;;;;;25.21;62.09;97003.19;5072238;28;20646;-74
2023/07/22 00:18:32;;;;;;;25.93;23.83;;;;;;;25.17;62.17;96993.91;5089818;28;20187;-79
2023/07/22 00:20:59;;;;;;;44.63;40.43;;;;;;;25.21;62.59;97003.19;5088336;28;20707;-75
2023/07/22 00:23:26;;;;;;;48.40;43.77;;;;;;;24.83;63.56;96981.53;5089956;28;20218;-78
2023/07/22 00:25:54;;;;;;;49.23;45.37;;;;;;;24.87;62.90;96984.69;5088575;28;20281;-76
2023/07/22 00:28:21;;;;;;;31.30;22.33;;;;;;;24.54;64.20;96982.84;5108086;28;20203;-73
2023/07/22 00:30:49;;;;;;;15.47;14.10;;;;;;;24.52;64.80;96979.53;5107498;28;20328;-72
2023/07/22 00:33:16;;;;;;;34.53;24.77;;;;;;;24.62;64.57;96970.50;5106960;28;20326;-72
2023/07/22 00:35:50;;;;;;;60.00;56.47;;;;;;;25.04;63.27;96973.16;5073108;28;20203;-73
2023/07/22 00:38:17;;;;;;;57.50;52.90;;;;;;;25.06;62.71;96976.47;5071328;28;20253;-73
2023/07/22 00:40:45;;;;;;;125.27;117.73;;;;;;;24.84;63.70;96969.09;5108187;28;20301;-75
2023/07/22 00:43:12;;;;;;;202.40;190.60;;;;;;;24.85;63.92;96970.78;5088149;28;20199;-72
2023/07/22 00:45:39;;;;;;;306.20;287.27;;;;;;;24.92;63.76;96974.44;5089740;28;20203;-75
2023/07/22 00:48:08;;;;;;;13.30;8.20;;;;;;;24.81;63.76;96953.56;5071869;28;20572;-73
2023/07/22 00:50:36;;;;;;;18.43;7.50;;;;;;;24.85;63.80;96941.63;5089012;28;20280;-74
2023/07/22 00:53:03;;;;;;;16.10;6.60;;;;;;;25.09;62.83;96965.56;5072814;28;20653;-73
2023/07/22 00:55:33;;;;;;;16.93;7.00;;;;;;;25.16;62.61;96985.13;5071325;28;20714;-73
2023/07/22 00:58:01;;;;;;;24.37;8.67;;;;;;;25.10;62.74;96972.50;5073001;28;20188;-72
2023/07/22 01:00:28;;;;;;;26.70;8.60;;;;;;;25.07;62.78;96959.59;5091860;28;20220;-73
2023/07/22 01:02:55;;;;;;;22.70;8.93;;;;;;;24.97;63.28;96978.28;5110809;28;20207;-75
2023/07/22 01:05:23;;;;;;;11.00;7.47;;;;;;;24.48;65.48;96976.38;5093103;28;20587;-74
2023/07/22 01:07:50;;;;;;;20.20;7.77;;;;;;;24.62;64.80;96990.84;5093683;28;20690;-73
2023/07/22 01:10:18;;;;;;;12.33;6.57;;;;;;;24.49;64.42;96943.59;5098155;28;20202;-72
2023/07/22 01:12:45;;;;;;;19.33;7.10;;;;;;;24.84;64.29;96971.75;5115738;28;20189;-72
2023/07/22 01:15:13;;;;;;;21.13;7.60;;;;;;;25.14;63.43;96983.63;5099606;28;20206;-73
2023/07/22 01:17:41;;;;;;;21.27;7.97;;;;;;;25.12;63.15;96988.28;5116648;28;20259;-73
2023/07/22 01:20:09;;;;;;;24.97;8.27;;;;;;;25.21;62.95;97008.50;5112320;28;20303;-72
2023/07/22 01:22:38;;;;;;;10.73;6.03;;;;;;;25.25;62.72;97031.88;5092946;28;20327;-73
2023/07/22 01:25:07;;;;;;;15.93;7.00;;;;;;;25.00;63.55;97036.25;5109398;28;20202;-74
2023/07/22 01:27:35;;;;;;;17.33;6.70;;;;;;;24.94;63.18;97007.75;5076505;28;20670;-73
2023/07/22 01:30:03;;;;;;;20.37;8.13;;;;;;;25.10;62.77;97003.50;5090795;28;20200;-72
2023/07/22 01:32:31;;;;;;;22.67;8.00;;;;;;;25.17;62.21;97013.28;5076786;28;20648;-72
2023/07/22 01:34:58;;;;;;;21.73;7.90;;;;;;;25.01;62.54;96989.38;5091360;28;20610;-72
2023/07/22 01:37:25;;;;;;;22.43;8.17;;;;;;;24.85;63.60;96981.38;5093253;28;20237;-74
2023/07/22 01:39:55;;;;;;;13.97;6.80;;;;;;;24.91;64.10;96986.03;5092136;28;20199;-74
2023/07/22 01:42:23;;;;;;;24.80;8.20;;;;;;;24.44;64.35;96979.50;5092283;28;20210;-74
2023/07/22 01:44:50;;;;;;;16.17;7.80;;;;;;;24.36;64.78;96968.84;5111294;28;20222;-74
2023/07/22 01:47:17;;;;;;;265.57;247.40;;;;;;;24.55;64.31;96971.25;5091547;28;20234;-72
2023/07/22 01:49:45;;;;;;;19.30;15.07;;;;;;;24.69;64.40;96979.44;5092893;28;20199;-71
2023/07/22 01:52:12;;;;;;;18.03;9.87;;;;;;;24.51;64.69;96968.09;5090238;28;20770;-71
2023/07/22 01:54:39;;;;;;;27.40;10.40;;;;;;;24.69;64.61;96970.69;5075582;28;20221;-72
2023/07/22 01:57:06;;;;;;;15.60;8.10;;;;;;;24.19;65.63;96950.22;5074639;28;20209;-72
2023/07/22 01:59:33;;;;;;;26.10;11.27;;;;;;;24.27;66.46;96975.09;5075063;28;20316;-72
2023/07/22 02:02:00;;;;;;;47.20;44.30;;;;;;;24.09;67.47;96981.25;5076186;28;20278;-72
2023/07/22 02:04:27;;;;;;;40.10;36.23;;;;;;;24.05;67.17;96982.53;5109438;28;20198;-73
2023/07/22 02:06:54;;;;;;;41.60;38.40;;;;;;;24.08;67.59;96962.88;5075950;28;20197;-72
2023/07/22 02:09:22;;;;;;;41.13;37.20;;;;;;;24.22;66.71;96971.09;5090227;28;20204;-72
2023/07/22 02:11:49;;;;;;;30.70;21.07;;;;;;;24.28;66.30;96976.75;5092929;28;20199;-72
2023/07/22 02:14:16;;;;;;;35.77;32.57;;;;;;;24.42;65.83;96976.16;5091501;28;20713;-72
2023/07/22 02:16:43;;;;;;;46.77;41.80;;;;;;;24.69;64.69;96978.63;5110240;28;20203;-73
2023/07/22 02:19:10;;;;;;;47.47;44.53;;;;;;;24.81;64.68;96972.09;5075484;28;20223;-73
2023/07/22 02:21:41;;;;;;;41.83;38.33;;;;;;;25.00;63.78;96985.91;5109259;28;20191;-74
2023/07/22 02:24:09;;;;;;;57.40;51.90;;;;;;;25.10;63.65;96993.72;5091950;28;20622;-77
2023/07/22 02:26:36;;;;;;;27.33;14.17;;;;;;;25.00;63.27;96972.66;5090928;28;20188;-77
2023/07/22 02:29:03;;;;;;;19.37;10.50;;;;;;;25.26;62.93;96991.13;5110329;28;20211;-76
2023/07/22 02:31:30;;;;;;;21.37;11.63;;;;;;;25.03;63.25;96976.81;5074410;28;20226;-77
2023/07/22 02:33:58;;;;;;;38.17;34.30;;;;;;;24.88;63.22;96943.94;5074638;28;20230;-73
2023/07/22 02:36:25;;;;;;;17.60;11.57;;;;;;;25.14;62.64;96984.47;5091684;28;20187;-78
2023/07/22 02:38:52;;;;;;;121.73;114.70;;;;;;;25.02;62.83;96975.13;5073782;28;20217;-76
2023/07/22 02:41:21;;;;;;;107.40;100.57;;;;;;;24.94;63.49;96969.81;5091899;28;20192;-76
2023/07/22 02:43:48;;;;;;;202.23;190.50;;;;;;;25.03;62.84;96967.03;5109071;28;20247;-74
2023/07/22 02:46:15;;;;;;;315.83;295.70;;;;;;;24.92;63.73;96963.84;5091883;28;20202;-77
2023/07/22 02:48:43;;;;;;;18.77;9.53;;;;;;;24.78;63.98;96959.16;5090459;28;20195;-73
2023/07/22 02:51:10;;;;;;;24.90;8.80;;;;;;;24.82;63.90;96948.09;5108581;28;20271;-75
2023/07/22 02:53:37;;;;;;;13.83;8.47;;;;;;;24.80;63.92;96941.28;5074463;28;20218;-72
2023/07/22 02:56:08;;;;;;;19.73;9.70;;;;;;;24.84;64.98;96962.00;5073240;28;20684;-73
2023/07/22 02:58:36;;;;;;;22.90;12.10;;;;;;;24.83;64.55;96970.13;5091917;28;20194;-74
2023/07/22 03:01:04;;;;;;;32.13;28.63;;;;;;;24.04;66.49;96965.03;5108078;28;20190;-74
2023/07/22 03:03:33;;;;;;;32.67;29.20;;;;;;;23.78;67.65;96942.94;5091603;28;20198;-73
2023/07/22 03:06:01;;;;;;;64.30;59.57;;;;;;;23.88;67.14;96953.44;5108131;28;20293;-77
2023/07/22 03:08:28;;;;;;;80.07;74.60;;;;;;;23.65;68.21;96953.09;5091201;28;20277;-74
2023/07/22 03:10:56;;;;;;;82.87;78.37;;;;;;;22.81;71.04;96938.53;5090959;28;20808;-73
2023/07/22 03:13:23;;;;;;;38.70;34.63;;;;;;;22.83;71.41;96962.16;5089979;28;20197;-74
2023/07/22 03:15:50;;;;;;;46.80;42.70;;;;;;;22.67;71.32;96947.75;5090866;28;20201;-72
2023/07/22 03:18:17;;;;;;;116.00;108.63;;;;;;;22.59;72.51;96984.63;5089455;28;20698;-76
2023/07/22 03:20:44;;;;;;;197.77;186.27;;;;;;;22.25;73.51;96986.13;5090140;28;20692;-72
2023/07/22 03:23:11;;;;;;;190.90;179.93;;;;;;;22.18;74.02;96981.53;5107693;28;20251;-78
2023/07/22 03:25:38;;;;;;;164.83;155.63;;;;;;;22.13;74.47;96978.50;5109072;28;20226;-73
2023/07/22 03:28:06;;;;;;;41.33;38.53;;;;;;;22.06;75.22;96982.66;5091313;28;20203;-73
2023/07/22 03:30:34;;;;;;;142.83;134.20;;;;;;;22.26;74.81;96979.84;5073942;28;20592;-76
2023/07/22 03:33:01;;;;;;;136.93;129.63;;;;;;;22.47;73.64;96962.00;5093668;28;20210;-74
2023/07/22 03:35:28;;;;;;;137.03;128.57;;;;;;;22.83;73.04;96985.91;5108009;28;20218;-74
2023/07/22 03:37:56;;;;;;;123.53;115.60;;;;;;;22.70;74.22;96991.53;5108972;28;20216;-73
2023/07/22 03:40:28;;;;;;;111.30;105.57;;;;;;;22.84;73.13;96958.50;5107322;28;20257;-73
2023/07/22 03:42:57;;;;;;;99.97;93.13;;;;;;;22.92;73.49;96961.25;5108802;28;20276;-74
2023/07/22 03:45:25;;;;;;;45.60;42.47;;;;;;;23.21;73.30;96981.22;5108148;28;20202;-78
2023/07/22 03:47:56;;;;;;;164.87;154.77;;;;;;;23.59;71.72;96985.44;5107563;28;20198;-73
2023/07/22 03:50:24;;;;;;;131.27;123.07;;;;;;;23.92;70.34;96982.09;5108750;28;20192;-74
2023/07/22 03:52:51;;;;;;;83.57;77.10;;;;;;;24.05;68.92;96989.66;5107234;28;20341;-79
2023/07/22 03:55:21;;;;;;;68.33;62.17;;;;;;;24.12;68.28;96986.25;5073189;28;20249;-77
2023/07/22 03:57:48;;;;;;;109.63;102.93;;;;;;;24.44;67.36;96990.09;5088632;28;20281;-73
2023/07/22 04:00:16;;;;;;;173.93;164.13;;;;;;;24.50;67.36;96989.47;5072968;28;20205;-73
2023/07/22 04:02:43;;;;;;;222.20;211.00;;;;;;;24.35;66.88;96969.84;5090043;28;20201;-76
2023/07/22 04:05:10;;;;;;;149.50;139.43;;;;;;;24.40;67.16;96984.25;5088887;28;20201;-75
2023/07/22 04:07:38;;;;;;;124.03;116.67;;;;;;;24.54;66.05;96981.03;5090399;28;20214;-75
2023/07/22 04:10:06;;;;;;;135.87;127.23;;;;;;;24.82;65.43;96981.69;5071458;28;20230;-74
2023/07/22 04:12:33;;;;;;;132.50;123.93;;;;;;;25.12;64.96;96985.63;5090316;28;20287;-76
2023/07/22 04:15:00;;;;;;;158.90;149.80;;;;;;;25.20;63.77;96962.63;5071430;28;20223;-73
2023/07/22 04:17:31;;;;;;;131.67;123.53;;;;;;;25.82;62.09;96985.13;5064907;28;20629;-72
2023/07/22 04:19:58;;;;;;;112.37;106.03;;;;;;;26.19;60.90;96996.06;5087566;28;20215;-74
2023/07/22 04:22:25;;;;;;;145.00;135.60;;;;;;;26.50;59.67;96996.19;5068417;28;20586;-72
2023/07/22 04:24:52;;;;;;;144.93;135.87;;;;;;;26.66;59.28;96997.97;5070227;28;20710;-74
2023/07/22 04:27:20;;;;;;;156.70;146.57;;;;;;;26.83;58.81;96987.13;5086149;28;20200;-76
2023/07/22 04:29:47;;;;;;;190.10;178.40;;;;;;;26.89;58.87;96986.47;5069963;28;20199;-73
2023/07/22 04:32:14;;;;;;;258.50;243.13;;;;;;;27.05;57.96;96974.91;5083919;28;20196;-74
2023/07/22 04:34:41;;;;;;;270.03;253.47;;;;;;;26.92;59.37;96999.41;5063131;28;20942;-79
2023/07/22 04:37:08;;;;;;;208.33;197.43;;;;;;;27.12;59.15;97000.63;5076097;28;20292;-78
2023/07/22 04:39:37;;;;;;;163.83;153.73;;;;;;;27.25;57.89;96992.94;5054350;28;20276;-76
2023/07/22 04:42:04;;;;;;;140.67;132.83;;;;;;;27.35;58.29;97022.81;5076249;28;20196;-75
2023/07/22 04:44:32;;;;;;;164.20;154.07;;;;;;;27.23;57.73;97008.22;5071090;28;20196;-72
2023/07/22 04:46:59;;;;;;;183.53;172.20;;;;;;;27.02;58.68;97021.28;5064332;28;20208;-74
2023/07/22 04:49:27;;;;;;;234.50;220.13;;;;;;;27.39;57.67;97015.31;5077019;28;20921;-72
2023/07/22 04:51:54;;;;;;;188.60;176.90;;;;;;;27.30;57.46;96979.94;5106983;28;20600;-77
2023/07/22 04:54:22;;;;;;;136.40;129.33;;;;;;;27.45;57.27;97011.16;5083956;28;20247;-79
2023/07/22 04:56:49;;;;;;;206.67;194.47;;;;;;;26.66;59.17;96995.31;5059427;28;20283;-79
2023/07/22 04:59:16;;;;;;;237.10;223.67;;;;;;;27.10;58.55;97020.44;5059163;28;20193;-81
2023/07/22 05:01:44;;;;;;;202.73;190.00;;;;;;;27.03;58.79;97007.00;5052696;28;20267;-75
2023/07/22 05:04:11;;;;;;;191.60;179.43;;;;;;;27.32;57.79;97007.19;5062831;28;20205;-78
2023/07/22 05:06:38;;;;;;;200.20;187.80;;;;;;;27.09;58.90;97005.47;5080397;28;20259;-80
2023/07/22 05:09:05;;;;;;;284.37;266.47;;;;;;;27.18;57.81;96991.16;5069863;28;20208;-77
2023/07/22 05:11:33;;;;;;;180.27;169.80;;;;;;;26.89;58.98;96998.91;5080456;28;20287;-76
2023/07/22 05:14:00;;;;;;;245.17;229.83;;;;;;;27.32;58.17;96995.72;5086040;28;20197;-80
2023/07/22 05:16:27;;;;;;;332.47;313.03;;;;;;;27.38;57.34;96993.22;5046615;28;20201;-73
2023/07/22 05:18:55;;;;;;;476.63;444.47;;;;;;;27.47;56.75;96974.56;5057204;28;20201;-75
2023/07/22 05:21:22;;;;;;;383.80;357.93;;;;;;;27.51;57.75;96976.69;5060157;28;20281;-79
2023/07/22 05:23:50;;;;;;;285.90;268.07;;;;;;;28.02;56.15;96997.28;5076087;28;20367;-73
2023/07/22 05:26:17;;;;;;;266.13;250.63;;;;;;;28.26;55.02;96992.72;5059067;28;20608;-74
2023/07/22 05:28:46;;;;;;;392.17;366.30;;;;;;;28.38;55.34;97008.09;5052977;28;20671;-75
2023/07/22 05:31:13;;;;;;;400.57;373.37;;;;;;;28.51;55.11;96997.66;5057992;28;20645;-75
2023/07/22 05:33:40;;;;;;;419.87;393.33;;;;;;;29.06;54.10;96999.06;5049749;28;20209;-78
2023/07/22 05:36:07;;;;;;;352.20;328.97;;;;;;;28.87;53.67;96974.59;5030491;28;20225;-75
2023/07/22 05:38:34;;;;;;;366.43;342.30;;;;;;;28.57;55.09;97001.44;5032808;28;20193;-74
2023/07/22 05:41:02;;;;;;;282.57;264.83;;;;;;;28.54;54.83;96986.63;5073549;28;20201;-80
2023/07/22 05:43:30;;;;;;;307.77;288.17;;;;;;;28.14;56.26;96997.69;5087408;28;20188;-73
2023/07/22 05:45:57;;;;;;;349.33;326.90;;;;;;;28.21;55.55;96974.66;5045277;28;20276;-74
2023/07/22 05:48:25;;;;;;;263.20;246.40;;;;;;;28.61;55.15;96960.09;5062246;28;20193;-76
2023/07/22 05:50:52;;;;;;;249.50;235.60;;;;;;;28.96;53.01;96994.00;5062346;28;20213;-79
2023/07/22 05:53:20;;;;;;;172.90;161.23;;;;;;;29.12;52.53;96982.31;5061666;28;20689;-75
2023/07/22 05:55:47;;;;;;;189.97;177.73;;;;;;;29.28;52.84;96993.63;5063407;28;20625;-78
2023/07/22 05:58:18;;;;;;;176.27;165.03;;;;;;;29.54;53.27;97007.28;5044641;28;20207;-75
2023/07/22 06:00:46;;;;;;;209.83;196.67;;;;;;;29.55;51.95;96984.09;5079731;28;20663;-73
2023/07/22 06:03:14;;;;;;;234.93;219.50;;;;;;;29.74;52.01;96970.94;5069826;28;20208;-75
2023/07/22 06:05:41;;;;;;;207.03;194.00;;;;;;;29.58;51.10;96981.03;5058955;28;20191;-73
2023/07/22 06:08:08;;;;;;;182.50;172.27;;;;;;;29.50;52.41;96989.97;5074682;28;20218;-73
2023/07/22 06:10:43;;;;;;;184.40;172.50;;;;;;;29.70;51.51;97003.53;5109235;28;20192;-73
2023/07/22 06:13:11;;;;;;;169.97;159.03;;;;;;;29.61;51.38;96996.69;5059047;28;20199;-74
2023/07/22 06:15:39;;;;;;;210.47;196.90;;;;;;;29.19;52.45;96952.06;5090321;28;20211;-74
2023/07/22 06:18:08;;;;;;;184.03;170.60;;;;;;;29.35;51.45;96972.34;5091906;28;20291;-75
2023/07/22 06:20:36;;;;;;;193.70;182.87;;;;;;;29.58;51.00;96997.03;5090363;28;20332;-75
2023/07/22 06:23:03;;;;;;;180.93;168.83;;;;;;;29.37;50.92;96962.31;5091149;28;20230;-74
2023/07/22 06:25:31;;;;;;;181.80;170.70;;;;;;;29.68;51.15;96997.56;5109372;28;20199;-74
2023/07/22 06:27:58;;;;;;;215.77;202.67;;;;;;;29.88;49.54;96987.94;5090283;28;20274;-74
2023/07/22 06:30:25;;;;;;;243.73;227.57;;;;;;;30.03;48.89;97010.06;5109869;28;20214;-74
2023/07/22 06:32:53;;;;;;;768.13;715.97;;;;;;;30.13;49.49;97004.41;5091135;28;20195;-76
2023/07/22 06:35:20;;;;;;;117.60;109.13;;;;;;;30.47;49.43;97004.50;5110046;28;20223;-76
2023/07/22 06:37:47;;;;;;;249.00;233.27;;;;;;;30.52;49.27;97013.56;5108165;28;20265;-74
2023/07/22 06:40:15;;;;;;;291.27;273.70;;;;;;;30.60;49.42;97009.09;5091202;28;20207;-74
2023/07/22 06:42:42;;;;;;;1008.87;937.67;;;;;;;30.62;49.71;97007.06;5108687;28;20223;-74
2023/07/22 06:45:10;;;;;;;351.67;327.50;;;;;;;30.39;49.44;97001.97;5089642;28;20188;-74
2023/07/22 06:47:37;;;;;;;269.63;252.93;;;;;;;30.43;49.70;97006.72;5091915;28;20224;-73
2023/07/22 06:50:05;;;;;;;202.37;188.57;;;;;;;30.54;50.03;96982.13;5090591;28;20204;-76
2023/07/22 06:52:33;;;;;;;109.47;100.87;;;;;;;30.84;49.64;96998.75;5091415;28;20887;-74
2023/07/22 06:55:00;;;;;;;138.73;130.07;;;;;;;30.72;48.52;97008.38;5057372;28;20231;-75
2023/07/22 06:57:30;;;;;;;146.20;134.68;;;;;;;30.51;49.66;97003.06;5074694;28;20271;-74
2023/07/22 06:59:57;;;;;;;106.37;99.60;;;;;;;30.48;49.64;96974.03;5085963;28;20825;-77
2023/07/22 07:02:25;;;;;;;126.70;117.07;;;;;;;30.64;49.78;96991.66;5056639;28;20270;-77
2023/07/22 07:04:52;;;;;;;258.77;242.43;;;;;;;30.61;49.56;96989.34;5034204;28;20216;-74
2023/07/22 07:07:20;;;;;;;500.40;464.03;;;;;;;30.76;49.03;97000.78;5062912;28;20205;-73
2023/07/22 07:09:47;;;;;;;496.00;459.90;;;;;;;30.98;48.48;97008.53;5070823;28;20204;-74
2023/07/22 07:12:14;;;;;;;497.83;462.63;;;;;;;31.16;48.36;97013.38;5069329;28;20593;-76
2023/07/22 07:14:42;;;;;;;561.53;520.73;;;;;;;31.11;47.62;97011.28;5088730;28;20222;-76
2023/07/22 07:17:13;;;;;;;586.20;544.97;;;;;;;31.10;48.40;97016.81;5070306;28;20223;-73
2023/07/22 07:19:40;;;;;;;621.83;576.87;;;;;;;31.37;47.28;97018.59;5052740;28;20192;-72
2023/07/22 07:22:07;;;;;;;607.07;563.97;;;;;;;31.53;47.59;97018.28;5087861;28;20224;-73
2023/07/22 07:24:36;;;;;;;587.37;545.00;;;;;;;31.23;47.86;97011.53;5068584;28;20199;-72
2023/07/22 07:27:06;;;;;;;592.72;549.40;;;;;;;31.43;47.86;97014.34;5066435;28;20208;-77
2023/07/22 07:29:34;;;;;;;580.43;538.37;;;;;;;31.39;47.49;96999.69;5065465;28;20197;-75
2023/07/22 07:32:20;;;;;;;468.00;435.73;;;;;;;31.17;46.78;96986.41;5069528;28;20235;-73
2023/07/22 07:34:47;;;;;;;505.00;471.50;;;;;;;31.54;47.07;97022.59;5055875;28;20212;-74
2023/07/22 07:37:14;;;;;;;415.02;385.02;;;;;;;31.60;46.77;97011.09;5077734;28;20208;-75
2023/07/22 07:39:43;;;;;;;244.90;228.25;;;;;;;31.48;46.64;97014.56;5070144;28;20212;-76
2023/07/22 07:42:12;;;;;;;254.50;236.50;;;;;;;31.38;47.01;97025.63;5060896;28;20203;-74
2023/07/22 07:44:39;;;;;;;249.65;232.00;;;;;;;31.43;47.15;97028.53;5108222;28;20672;-74
2023/07/22 07:47:07;;;;;;;275.67;256.77;;;;;;;31.55;47.20;97010.84;5054329;28;20196;-74
2023/07/22 07:49:34;;;;;;;219.80;205.23;;;;;;;31.81;46.08;97018.97;5089814;28;20687;-75
2023/07/22 07:52:04;;;;;;;245.48;230.40;;;;;;;31.77;46.34;97016.91;5056304;28;20196;-75
2023/07/22 07:54:32;;;;;;;275.00;257.20;;;;;;;31.71;46.16;97015.88;5088575;28;20196;-77
2023/07/22 07:57:02;;;;;;;306.42;286.50;;;;;;;31.98;45.77;97011.41;5090475;28;20211;-79
2023/07/22 07:59:37;;;;;;;514.15;476.20;;;;;;;31.77;46.31;97015.06;5089166;28;20195;-78
2023/07/22 08:02:09;;;;;;;330.50;309.02;;;;;;;31.87;46.36;97003.94;5089572;28;20206;-73
2023/07/22 08:04:36;;;;;;;308.02;289.15;;;;;;;32.12;45.49;97012.25;5107068;28;20270;-77
2023/07/22 08:07:06;;;;;;;487.35;452.67;;;;;;;31.74;46.08;97003.91;5071767;28;20291;-74
2023/07/22 08:09:33;;;;;;;357.65;334.88;;;;;;;32.08;45.45;97001.94;5090778;28;20302;-76
2023/07/22 08:12:01;;;;;;;402.45;373.48;;;;;;;32.15;45.45;97001.13;5093153;28;20200;-78
2023/07/22 08:14:28;;;;;;;461.70;428.50;;;;;;;32.13;46.44;96987.09;5064609;28;20600;-76
2023/07/22 08:16:59;;;;;;;598.75;554.17;;;;;;;32.32;45.26;97002.34;5089549;28;20216;-77
2023/07/22 08:19:26;;;;;;;721.20;669.65;;;;;;;32.46;45.16;96971.88;5057167;28;20302;-75
2023/07/22 08:21:54;;;;;;;820.95;764.58;;;;;;;32.69;44.98;96985.63;5088702;28;20196;-77
2023/07/22 08:24:21;;;;;;;886.55;825.28;;;;;;;32.77;44.68;96985.41;5106940;28;20734;-74
2023/07/22 08:26:48;;;;;;;670.92;623.10;;;;;;;32.38;45.67;96982.75;5107858;28;20196;-75
2023/07/22 08:29:16;;;;;;;1029.80;952.80;;;;;;;32.20;45.75;96987.91;5105839;28;20191;-76
2023/07/22 08:31:47;;;;;;;1068.37;979.90;;;;;;;32.19;46.69;96976.34;5089101;28;20271;-75
2023/07/22 08:34:15;;;;;;;1065.50;977.57;;;;;;;32.38;46.26;96962.13;5070671;28;20196;-75
2023/07/22 08:36:46;;;;;;;1063.70;981.37;;;;;;;32.41;45.35;96952.84;5089641;28;20712;-73
2023/07/22 08:39:13;;;;;;;1062.03;984.53;;;;;;;32.63;45.29;96965.84;5071549;28;20704;-76
2023/07/22 08:41:48;;;;;;;1062.37;982.50;;;;;;;32.66;45.12;96976.16;5088688;28;20746;-73
2023/07/22 08:44:55;;;;;;;1072.77;987.77;;;;;;;32.59;45.25;96974.50;5089216;28;20671;-74
2023/07/22 08:47:41;;;;;;;1068.93;981.37;;;;;;;32.80;44.96;96974.25;5051231;28;20200;-73
2023/07/22 08:50:11;;;;;;;1076.40;987.03;;;;;;;32.89;44.78;96968.44;5068491;28;20195;-77
2023/07/22 08:52:39;;;;;;;971.75;906.85;;;;;;;32.78;44.79;96938.78;5087463;28;20197;-73
2023/07/22 08:55:59;;;;;;;1071.30;986.67;;;;;;;32.94;44.31;96958.94;5066773;28;20731;-74
2023/07/22 08:58:42;;;;;;;1060.27;984.30;;;;;;;32.64;43.90;96950.56;5049813;28;20709;-76
2023/07/22 09:01:49;;;;;;;1078.97;989.53;;;;;;;32.68;44.99;96954.47;5065974;28;20204;-73
2023/07/22 09:04:32;;;;;;;1046.67;971.07;;;;;;;32.89;43.91;96946.19;5057293;28;20650;-79
2023/07/22 09:07:43;;;;;;;875.75;816.03;;;;;;;33.01;43.67;96932.94;5020813;28;20208;-82
2023/07/22 09:10:27;;;;;;;853.15;794.50;;;;;;;33.34;43.24;96937.13;5049726;28;20228;-73
2023/07/22 09:12:59;;;;;;;1056.30;975.70;;;;;;;32.93;43.52;96942.03;5072246;28;20197;-75
2023/07/22 09:15:27;;;;;;;1075.30;988.60;;;;;;;32.90;44.05;96955.84;5055585;28;20268;-74
2023/07/22 09:17:54;;;;;;;1075.77;987.33;;;;;;;33.17;43.13;96924.41;5051394;28;20226;-76
2023/07/22 09:20:23;;;;;;;1086.93;996.00;;;;;;;33.38;42.70;96932.13;5089030;28;20229;-78
2023/07/22 09:22:51;;;;;;;1075.10;987.63;;;;;;;33.60;43.05;96947.75;5062854;28;20726;-78
2023/07/22 09:25:40;;;;;;;1079.87;991.87;;;;;;;33.57;42.14;96950.03;5049210;28;20209;-74
2023/07/22 09:28:07;;;;;;;931.92;869.08;;;;;;;32.99;43.80;96932.31;5043155;28;20221;-76
2023/07/22 09:30:39;;;;;;;852.45;792.85;;;;;;;32.87;44.04;96946.38;5068913;28;20646;-79
2023/07/22 09:33:20;;;;;;;801.45;745.10;;;;;;;33.32;43.36;96947.25;5036090;28;20197;-75
2023/07/22 09:35:49;;;;;;;1086.43;996.90;;;;;;;33.69;42.37;96950.16;5052281;28;20303;-76
2023/07/22 09:38:25;;;;;;;1089.13;998.80;;;;;;;33.74;41.48;96947.66;5051567;28;20185;-77
2023/07/22 09:40:53;;;;;;;1088.73;999.00;;;;;;;33.39;42.43;96926.53;5053870;28;20609;-74
2023/07/22 09:43:23;;;;;;;1093.03;999.90;;;;;;;33.49;42.52;96931.50;5070304;28;20200;-76
2023/07/22 09:45:53;;;;;;;1099.80;999.90;;;;;;;33.79;40.74;96926.31;5091034;28;20613;-75
2023/07/22 09:48:25;;;;;;;1097.40;999.90;;;;;;;34.02;40.64;96932.78;5056105;28;20220;-72
2023/07/22 09:50:58;;;;;;;1113.33;999.90;;;;;;;34.00;40.42;96918.75;5072404;28;20220;-73
2023/07/22 09:53:25;;;;;;;1085.40;999.90;;;;;;;34.26;40.48;96918.50;5072145;28;20196;-76
2023/07/22 09:55:53;;;;;;;1034.60;961.15;;;;;;;34.31;41.05;96924.03;5070334;28;20377;-74
2023/07/22 09:58:24;;;;;;;1103.13;999.90;;;;;;;34.20;40.67;96921.25;5089129;28;20201;-73
2023/07/22 10:00:51;;;;;;;1088.55;999.90;;;;;;;34.24;40.57;96907.16;5088107;28;20193;-75
2023/07/22 10:03:19;;;;;;;1109.33;999.90;;;;;;;34.20;41.33;96903.25;5077375;28;20213;-74
2023/07/22 10:05:50;;;;;;;1101.57;999.90;;;;;;;34.45;39.78;96911.28;5089582;28;20726;-73
2023/07/22 10:08:19;;;;;;;836.92;773.95;;;;;;;34.19;40.28;96915.03;5086069;28;20355;-73
2023/07/22 10:10:52;;;;;;;1084.10;998.25;;;;;;;33.77;41.67;96923.03;5038788;28;20207;-72
2023/07/22 10:13:19;;;;;;;700.58;648.90;;;;;;;33.67;41.38;96911.94;5053122;28;20220;-74
2023/07/22 10:15:48;;;;;;;427.63;397.00;;;;;;;33.57;41.61;96902.50;5071824;28;20228;-73
2023/07/22 10:18:16;;;;;;;429.60;398.00;;;;;;;33.54;41.22;96892.19;5069988;28;20197;-73
2023/07/22 10:20:44;;;;;;;432.33;401.48;;;;;;;33.95;41.34;96904.28;5070297;28;20203;-74
2023/07/22 10:23:14;;;;;;;460.25;429.27;;;;;;;34.00;40.19;96893.72;5056963;28;20598;-75
2023/07/22 10:25:42;;;;;;;153.93;142.50;;;;;;;34.39;40.42;96883.44;5050194;28;20200;-75
2023/07/22 10:28:11;;;;;;;165.63;154.18;;;;;;;34.55;39.08;96887.41;5061667;28;20200;-75
2023/07/22 10:30:38;;;;;;;173.73;162.27;;;;;;;34.43;38.97;96881.09;5068968;28;20203;-73
2023/07/22 10:33:05;;;;;;;166.18;155.20;;;;;;;34.34;38.96;96871.66;5090209;28;20274;-75
2023/07/22 10:35:32;;;;;;;174.02;162.18;;;;;;;34.30;39.06;96870.47;5088300;28;20216;-74
2023/07/22 10:38:10;;;;;;;172.68;161.82;;;;;;;34.19;39.38;96873.91;5070985;28;20556;-74
2023/07/22 10:40:50;;;;;;;202.10;190.88;;;;;;;34.24;39.30;96866.81;5071694;28;20189;-74
2023/07/22 10:43:23;;;;;;;229.98;214.52;;;;;;;34.20;39.78;96878.22;5087871;28;20224;-75
2023/07/22 10:46:30;;;;;;;163.55;153.38;;;;;;;34.06;40.33;96879.41;5054548;28;20200;-74
2023/07/22 10:49:47;;;;;;;140.23;132.25;;;;;;;33.96;39.53;96862.94;5072370;28;20223;-73
2023/07/22 10:52:42;;;;;;;198.00;184.77;;;;;;;34.07;40.02;96872.97;5052868;28;20206;-72
2023/07/22 10:55:19;;;;;;;211.52;197.35;;;;;;;34.09;39.21;96860.13;5054390;28;20200;-75
2023/07/22 10:58:33;;;;;;;171.85;162.25;;;;;;;33.93;39.85;96858.81;5068635;28;20265;-76
2023/07/22 11:01:26;;;;;;;186.27;173.70;;;;;;;34.17;39.25;96870.63;5064160;28;20207;-74
2023/07/22 11:04:31;;;;;;;195.25;183.52;;;;;;;34.21;39.43;96866.44;5088827;28;20201;-76
2023/07/22 11:07:30;;;;;;;241.00;225.25;;;;;;;34.25;39.11;96854.19;5051508;28;20718;-78
2023/07/22 11:09:57;;;;;;;316.90;295.80;;;;;;;34.43;38.58;96846.97;5049016;28;20796;-79
2023/07/22 11:12:25;;;;;;;485.75;451.77;;;;;;;34.53;38.19;96865.28;5061595;28;20235;-76
2023/07/22 11:15:01;;;;;;;152.65;144.23;;;;;;;34.15;39.28;96846.63;5067505;28;20220;-80
2023/07/22 11:17:31;;;;;;;198.73;185.90;;;;;;;34.08;39.31;96848.56;5079726;28;20703;-75
2023/07/22 11:19:59;;;;;;;201.63;187.45;;;;;;;34.40;39.87;96850.09;5097155;28;20196;-76